createdAt,value
2022-11-23T00:01:19.296Z,20.95
2022-11-23T00:03:49.100Z,28.58
2022-11-23T00:06:17.664Z,29.35
2022-11-23T00:08:45.526Z,27.60
2022-11-23T00:11:13.530Z,29.98
2022-11-23T00:13:41.543Z,33.15
2022-11-23T00:16:13.812Z,28.92
2022-11-23T00:18:40.720Z,33.17
2022-11-23T00:21:17.915Z,32.70
2022-11-23T00:23:46.251Z,29.45
2022-11-23T00:26:14.406Z,33.50
2022-11-23T00:28:42.754Z,23.75
2022-11-23T00:31:13.680Z,25.38
2022-11-23T00:33:41.302Z,23.00
2022-11-23T00:36:14.875Z,21.17
2022-11-23T00:38:43.746Z,23.80
2022-11-23T00:41:21.348Z,24.38
2022-11-23T00:43:48.466Z,21.05
2022-11-23T00:46:17.645Z,21.48
2022-11-23T00:48:48.057Z,23.10
2022-11-23T00:51:19.957Z,20.05
2022-11-23T00:53:47.183Z,20.35
2022-11-23T00:56:14.248Z,23.55
2022-11-23T00:58:41.386Z,24.08
2022-11-23T01:01:15.256Z,22.33
2022-11-23T01:03:45.838Z,26.08
2022-11-23T01:06:22.447Z,25.48
2022-11-23T01:08:57.715Z,28.25
2022-11-23T01:11:27.772Z,24.58
2022-11-23T01:13:55.417Z,26.80
2022-11-23T01:16:26.589Z,26.48
2022-11-23T01:19:00.555Z,29.92
2022-11-23T01:21:30.418Z,25.52
2022-11-23T01:23:57.786Z,26.63
2022-11-23T01:26:25.369Z,28.98
2022-11-23T01:28:52.730Z,28.75
2022-11-23T01:31:25.746Z,31.98
2022-11-23T01:33:58.679Z,28.55
2022-11-23T01:36:32.396Z,36.35
2022-11-23T01:39:01.399Z,27.60
2022-11-23T01:41:36.066Z,31.08
2022-11-23T01:44:31.791Z,29.05
2022-11-23T01:47:05.806Z,31.33
2022-11-23T01:49:53.061Z,38.35
2022-11-23T01:52:25.894Z,32.10
2022-11-23T01:55:02.610Z,30.95
2022-11-23T01:57:40.612Z,30.48
2022-11-23T02:00:10.413Z,37.08
2022-11-23T02:02:48.826Z,29.50
2022-11-23T02:05:19.556Z,32.80
2022-11-23T02:07:50.072Z,37.75
2022-11-23T02:10:18.082Z,29.40
2022-11-23T02:12:45.041Z,33.17
2022-11-23T02:15:12.689Z,28.50
2022-11-23T02:17:43.011Z,25.90
2022-11-23T02:20:18.056Z,29.75
2022-11-23T02:23:21.037Z,26.77
2022-11-23T02:26:00.212Z,28.58
2022-11-23T02:28:35.988Z,32.45
2022-11-23T02:31:03.291Z,27.85
2022-11-23T02:33:30.769Z,30.15
2022-11-23T02:36:01.484Z,29.48
2022-11-23T02:38:34.081Z,25.60
2022-11-23T02:41:01.349Z,27.38
2022-11-23T02:43:28.448Z,25.35
2022-11-23T02:46:04.267Z,25.23
2022-11-23T02:48:31.148Z,25.98
2022-11-23T02:50:58.085Z,27.98
2022-11-23T02:53:24.980Z,26.02
2022-11-23T02:55:54.123Z,31.90
2022-11-23T02:58:21.019Z,36.95
2022-11-23T03:00:47.965Z,35.72
2022-11-23T03:03:18.242Z,35.03
2022-11-23T03:05:45.462Z,30.00
2022-11-23T03:08:12.370Z,37.47
2022-11-23T03:10:40.596Z,29.25
2022-11-23T03:13:07.696Z,33.50
2022-11-23T03:15:36.211Z,27.42
2022-11-23T03:18:04.841Z,28.08
2022-11-23T03:20:32.402Z,29.80
2022-11-23T03:22:59.321Z,25.52
2022-11-23T03:25:26.488Z,24.00
2022-11-23T03:27:55.745Z,25.50
2022-11-23T03:30:22.713Z,26.27
2022-11-23T03:32:49.888Z,23.58
2022-11-23T03:35:18.500Z,25.65
2022-11-23T03:38:11.841Z,24.92
2022-11-23T03:40:39.013Z,24.27
2022-11-23T03:43:15.091Z,25.87
2022-11-23T03:45:42.991Z,23.48
2022-11-23T03:48:10.304Z,32.13
2022-11-23T03:50:37.258Z,31.90
2022-11-23T03:53:04.801Z,29.08
2022-11-23T03:55:33.306Z,33.00
2022-11-23T03:58:00.936Z,28.30
2022-11-23T04:00:31.886Z,26.38
2022-11-23T04:02:59.089Z,23.92
2022-11-23T04:05:46.332Z,25.88
2022-11-23T04:08:34.433Z,27.05
2022-11-23T04:11:06.293Z,27.38
2022-11-23T04:13:38.644Z,24.98
2022-11-23T04:16:07.303Z,28.27
2022-11-23T04:18:34.353Z,31.42
2022-11-23T04:21:01.385Z,31.73
2022-11-23T04:23:28.644Z,31.23
2022-11-23T04:25:55.797Z,31.50
2022-11-23T04:28:24.091Z,27.75
2022-11-23T04:30:52.319Z,34.67
2022-11-23T04:33:19.935Z,29.50
2022-11-23T04:35:46.966Z,29.70
2022-11-23T04:38:14.591Z,26.80
2022-11-23T04:40:41.987Z,31.25
2022-11-23T04:43:09.592Z,31.85
2022-11-23T04:45:40.138Z,28.70
2022-11-23T04:48:12.973Z,29.80
2022-11-23T04:50:43.710Z,36.53
2022-11-23T04:53:14.506Z,47.80
2022-11-23T04:55:47.490Z,51.38
2022-11-23T04:58:15.963Z,41.22
2022-11-23T05:00:42.945Z,45.70
2022-11-23T05:03:11.513Z,44.92
2022-11-23T05:05:41.911Z,39.58
2022-11-23T05:08:10.108Z,40.97
2022-11-23T05:10:59.724Z,38.05
2022-11-23T05:13:26.677Z,34.45
2022-11-23T05:15:53.724Z,27.42
2022-11-23T05:18:25.440Z,33.15
2022-11-23T05:20:52.498Z,28.15
2022-11-23T05:23:19.502Z,27.88
2022-11-23T05:25:46.932Z,26.58
2022-11-23T05:28:39.708Z,22.67
2022-11-23T05:31:12.308Z,25.45
2022-11-23T05:33:40.615Z,24.65
2022-11-23T05:36:09.583Z,25.35
2022-11-23T05:38:38.869Z,22.50
2022-11-23T05:41:11.976Z,24.88
2022-11-23T05:43:41.857Z,23.10
2022-11-23T05:46:11.608Z,25.88
2022-11-23T05:48:39.390Z,24.67
2022-11-23T05:51:11.337Z,31.30
2022-11-23T05:53:43.940Z,34.30
2022-11-23T05:56:30.158Z,28.52
2022-11-23T05:59:08.411Z,23.52
2022-11-23T06:01:37.479Z,28.63
2022-11-23T06:04:06.833Z,27.75
2022-11-23T06:06:39.432Z,30.38
2022-11-23T06:09:06.366Z,32.65
2022-11-23T06:11:35.730Z,28.88
2022-11-23T06:14:14.000Z,40.08
2022-11-23T06:16:42.734Z,47.28
2022-11-23T06:19:39.015Z,34.53
2022-11-23T06:22:06.337Z,42.03
2022-11-23T06:24:39.187Z,37.05
2022-11-23T06:27:28.834Z,33.90
2022-11-23T06:29:55.812Z,31.02
2022-11-23T06:32:24.956Z,31.73
2022-11-23T06:34:52.015Z,30.42
2022-11-23T06:37:19.597Z,30.00
2022-11-23T06:39:52.045Z,35.40
2022-11-23T06:45:10.083Z,35.28
2022-11-23T06:47:37.862Z,32.33
2022-11-23T06:50:06.066Z,32.80
2022-11-23T06:52:33.361Z,35.22
2022-11-23T06:55:00.343Z,37.85
2022-11-23T06:57:27.374Z,35.92
2022-11-23T07:01:17.468Z,32.55
2022-11-23T07:03:51.838Z,35.55
2022-11-23T07:08:57.385Z,30.95
2022-11-23T07:11:38.285Z,35.15
2022-11-23T07:14:05.219Z,36.13
2022-11-23T07:16:32.348Z,33.03
2022-11-23T07:18:59.286Z,29.23
2022-11-23T07:21:26.189Z,28.85
2022-11-23T07:23:53.167Z,26.55
2022-11-23T07:26:20.395Z,29.88
2022-11-23T07:28:47.448Z,38.10
2022-11-23T07:31:16.160Z,79.13
2022-11-23T07:33:47.104Z,45.08
2022-11-23T07:36:14.813Z,64.50
2022-11-23T07:38:43.928Z,67.13
2022-11-23T07:41:13.054Z,63.13
2022-11-23T07:43:55.491Z,45.47
2022-11-23T07:46:23.088Z,50.33
2022-11-23T07:48:50.236Z,36.38
2022-11-23T07:51:19.521Z,32.88
2022-11-23T07:53:47.370Z,34.15
2022-11-23T07:56:14.299Z,34.17
2022-11-23T07:58:41.265Z,50.35
2022-11-23T08:01:08.226Z,63.05
2022-11-23T08:03:35.355Z,43.50
2022-11-23T08:06:02.342Z,100.45
2022-11-23T08:08:29.302Z,82.90
2022-11-23T08:10:56.291Z,50.58
2022-11-23T08:13:23.535Z,38.45
2022-11-23T08:15:54.916Z,30.27
2022-11-23T08:18:24.261Z,31.95
2022-11-23T08:20:51.577Z,108.47
2022-11-23T08:23:18.918Z,65.22
2022-11-23T08:25:46.554Z,107.53
2022-11-23T08:28:13.925Z,45.47
2022-11-23T08:30:41.444Z,88.20
2022-11-23T08:33:12.398Z,88.10
2022-11-23T08:35:42.352Z,53.65
2022-11-23T08:38:10.862Z,44.45
2022-11-23T08:40:38.871Z,31.52
2022-11-23T08:43:06.687Z,29.35
2022-11-23T08:45:33.929Z,27.70
2022-11-23T08:48:03.023Z,25.88
2022-11-23T08:50:30.749Z,25.80
2022-11-23T08:52:59.559Z,27.65
2022-11-23T08:55:28.727Z,30.80
2022-11-23T08:57:57.746Z,30.70
2022-11-23T09:00:26.619Z,35.40
2022-11-23T09:02:54.009Z,36.00
2022-11-23T09:05:21.154Z,44.53
2022-11-23T09:07:49.077Z,39.55
2022-11-23T09:10:19.456Z,35.83
2022-11-23T09:12:48.273Z,35.03
2022-11-23T09:15:16.110Z,36.33
2022-11-23T09:17:43.626Z,34.97
2022-11-23T09:20:11.165Z,33.70
2022-11-23T09:22:38.119Z,34.78
2022-11-23T09:25:07.121Z,31.77
2022-11-23T09:27:34.184Z,32.88
2022-11-23T09:30:01.162Z,30.95
2022-11-23T09:32:28.233Z,30.40
2022-11-23T09:34:55.203Z,28.75
2022-11-23T09:37:22.163Z,27.83
2022-11-23T09:39:49.052Z,30.27
2022-11-23T09:42:36.127Z,28.70
2022-11-23T09:45:10.859Z,33.65
2022-11-23T09:47:49.038Z,30.75
2022-11-23T09:50:40.564Z,26.75
2022-11-23T09:53:18.817Z,27.80
2022-11-23T09:55:50.001Z,30.92
2022-11-23T09:58:24.662Z,28.10
2022-11-23T10:01:08.410Z,30.27
2022-11-23T10:03:43.885Z,24.02
2022-11-23T10:06:26.054Z,32.60
2022-11-23T10:09:18.287Z,24.58
2022-11-23T10:12:15.973Z,25.65
2022-11-23T10:15:31.602Z,22.05
2022-11-23T10:18:19.863Z,24.23
2022-11-23T10:21:02.303Z,24.00
2022-11-23T10:24:05.378Z,22.15
2022-11-23T10:26:39.908Z,21.20
2022-11-23T10:29:31.713Z,22.83
2022-11-23T10:32:00.745Z,18.70
2022-11-23T10:34:48.408Z,19.52
2022-11-23T10:37:20.710Z,18.67
2022-11-23T10:39:47.613Z,20.02
2022-11-23T10:42:43.990Z,19.15
2022-11-23T10:45:23.445Z,23.02
2022-11-23T10:47:55.228Z,21.33
2022-11-23T10:50:30.275Z,22.92
2022-11-23T10:55:46.340Z,20.85
2022-11-23T11:01:11.953Z,20.80
2022-11-23T11:03:39.520Z,18.92
2022-11-23T11:06:11.099Z,16.88
2022-11-23T11:09:03.487Z,22.63
2022-11-23T11:11:39.657Z,20.08
2022-11-23T11:14:24.882Z,20.95
2022-11-23T11:16:55.337Z,17.75
2022-11-23T11:19:34.475Z,18.27
2022-11-23T11:22:25.850Z,19.65
2022-11-23T11:24:54.361Z,18.08
2022-11-23T11:27:29.079Z,19.88
2022-11-23T11:30:08.063Z,21.70
2022-11-23T11:32:48.584Z,18.88
2022-11-23T11:35:36.792Z,22.83
2022-11-23T11:38:33.319Z,16.85
2022-11-23T11:41:08.947Z,20.00
2022-11-23T11:43:56.367Z,18.85
2022-11-23T11:46:31.565Z,17.50
2022-11-23T11:49:13.377Z,18.02
2022-11-23T11:52:37.587Z,21.30
2022-11-23T11:55:21.078Z,17.10
2022-11-23T11:57:54.738Z,15.52
2022-11-23T12:00:22.032Z,15.75
2022-11-23T12:03:40.208Z,18.45
2022-11-23T12:06:35.554Z,21.02
2022-11-23T12:09:31.150Z,18.27
2022-11-23T12:11:59.046Z,16.45
2022-11-23T12:14:27.613Z,16.48
2022-11-23T12:17:32.048Z,16.75
2022-11-23T12:20:04.781Z,19.17
2022-11-23T12:22:42.835Z,16.17
2022-11-23T12:25:27.886Z,16.50
2022-11-23T12:28:28.046Z,17.50
2022-11-23T12:31:30.957Z,19.17
2022-11-23T12:34:15.344Z,17.63
2022-11-23T12:37:29.464Z,17.85
2022-11-23T12:40:47.648Z,18.95
2022-11-23T12:43:36.434Z,16.88
2022-11-23T12:46:35.755Z,16.95
2022-11-23T12:49:26.976Z,20.52
2022-11-23T12:52:24.852Z,17.63
2022-11-23T12:55:19.211Z,17.33
2022-11-23T12:58:13.367Z,14.90
2022-11-23T13:00:55.974Z,16.58
2022-11-23T13:07:43.297Z,15.02
2022-11-23T13:10:47.506Z,18.20
2022-11-23T13:14:12.364Z,18.88
2022-11-23T13:16:58.088Z,23.80
2022-11-23T13:22:27.620Z,21.38
2022-11-23T13:25:23.555Z,19.67
2022-11-23T13:27:50.796Z,21.75
2022-11-23T13:33:37.999Z,20.40
2022-11-23T13:36:13.874Z,29.75
2022-11-23T13:38:45.485Z,26.63
2022-11-23T13:41:34.490Z,25.15
2022-11-23T13:44:27.354Z,27.13
2022-11-23T13:47:21.408Z,32.83
2022-11-23T13:49:51.829Z,28.25
2022-11-23T13:52:24.315Z,29.08
2022-11-23T13:55:10.352Z,29.55
2022-11-23T13:57:40.317Z,25.63
2022-11-23T14:00:46.090Z,27.50
2022-11-23T14:03:50.233Z,29.95
2022-11-23T14:06:46.021Z,28.88
2022-11-23T14:09:19.114Z,34.55
2022-11-23T14:12:18.700Z,30.55
2022-11-23T14:15:20.941Z,30.55
2022-11-23T14:18:12.985Z,30.92
2022-11-23T14:21:01.730Z,28.67
2022-11-23T14:24:26.774Z,33.10
2022-11-23T14:27:46.315Z,28.80
2022-11-23T14:30:42.095Z,30.45
2022-11-23T14:33:33.255Z,30.48
2022-11-23T14:36:18.543Z,26.33
2022-11-23T14:39:23.506Z,28.15
2022-11-23T14:42:00.477Z,30.67
2022-11-23T14:44:34.108Z,25.85
2022-11-23T14:47:07.092Z,24.92
2022-11-23T14:49:34.821Z,29.40
2022-11-23T14:52:05.760Z,28.60
2022-11-23T14:54:33.500Z,25.65
2022-11-23T14:57:03.989Z,23.48
2022-11-23T14:59:39.941Z,22.60
2022-11-23T15:02:24.003Z,26.65
2022-11-23T15:05:12.069Z,27.58
2022-11-23T15:07:51.173Z,27.30
2022-11-23T15:10:52.295Z,27.20
2022-11-23T15:13:41.780Z,30.52
2022-11-23T15:16:14.901Z,33.25
2022-11-23T15:18:42.993Z,29.33
2022-11-23T15:21:12.856Z,30.60
2022-11-23T15:23:50.070Z,30.25
2022-11-23T15:26:46.829Z,33.30
2022-11-23T15:32:33.874Z,30.85
2022-11-23T15:35:14.718Z,36.30
2022-11-23T15:37:47.202Z,33.65
2022-11-23T15:40:18.270Z,33.80
2022-11-23T15:42:49.982Z,31.40
2022-11-23T15:45:41.412Z,29.40
2022-11-23T15:48:37.135Z,30.15
2022-11-23T15:51:08.870Z,38.20
2022-11-23T15:53:51.854Z,43.28
2022-11-23T15:56:29.671Z,40.95
2022-11-23T15:59:27.354Z,34.80
2022-11-23T16:01:55.620Z,31.70
2022-11-23T16:04:40.017Z,31.58
2022-11-23T16:07:17.037Z,33.05
2022-11-23T16:09:51.802Z,34.95
2022-11-23T16:12:29.432Z,38.72
2022-11-23T16:15:18.362Z,31.80
2022-11-23T16:17:45.685Z,33.25
2022-11-23T16:20:16.022Z,38.28
2022-11-23T16:22:50.636Z,35.33
2022-11-23T16:25:33.421Z,31.13
2022-11-23T16:28:29.140Z,36.10
2022-11-23T16:30:57.766Z,35.28
2022-11-23T16:33:26.327Z,35.60
2022-11-23T16:35:53.657Z,33.90
2022-11-23T16:38:21.209Z,37.28
2022-11-23T16:40:49.579Z,39.00
2022-11-23T16:43:18.144Z,39.15
2022-11-23T16:45:51.461Z,31.60
2022-11-23T16:48:38.236Z,36.90
2022-11-23T16:51:05.940Z,35.95
2022-11-23T16:54:13.380Z,32.30
2022-11-23T16:56:41.555Z,28.55
2022-11-23T16:59:18.416Z,32.28
2022-11-23T17:01:56.714Z,30.23
2022-11-23T17:04:25.370Z,31.63
2022-11-23T17:06:52.301Z,30.23
2022-11-23T17:09:19.156Z,25.85
2022-11-23T17:11:50.803Z,25.63
2022-11-23T17:14:20.123Z,30.92
2022-11-23T17:16:48.297Z,27.77
2022-11-23T17:19:18.296Z,32.58
2022-11-23T17:21:46.042Z,31.63
2022-11-23T17:24:13.947Z,26.50
2022-11-23T17:26:46.108Z,31.05
2022-11-23T17:29:19.417Z,27.05
2022-11-23T17:31:48.479Z,32.10
2022-11-23T17:34:16.321Z,26.63
2022-11-23T17:36:46.947Z,26.17
2022-11-23T17:39:28.278Z,30.17
2022-11-23T17:42:03.068Z,35.45
2022-11-23T17:44:31.639Z,29.08
2022-11-23T17:47:00.521Z,35.63
2022-11-23T17:49:28.301Z,37.40
2022-11-23T17:51:56.235Z,31.77
2022-11-23T17:54:26.312Z,31.60
2022-11-23T17:56:53.234Z,31.17
2022-11-23T17:59:20.149Z,29.42
2022-11-23T18:01:47.187Z,33.63
2022-11-23T18:04:14.132Z,27.83
2022-11-23T18:06:41.112Z,31.42
2022-11-23T18:09:11.716Z,38.88
2022-11-23T18:11:38.593Z,35.05
2022-11-23T18:14:05.605Z,37.22
2022-11-23T18:16:32.937Z,37.08
2022-11-23T18:18:59.933Z,40.38
2022-11-23T18:21:38.361Z,35.78
2022-11-23T18:24:05.830Z,35.10
2022-11-23T18:26:32.732Z,34.13
2022-11-23T18:28:59.682Z,33.35
2022-11-23T18:31:27.056Z,37.22
2022-11-23T18:33:55.458Z,37.00
2022-11-23T18:36:22.449Z,35.35
2022-11-23T18:38:51.463Z,38.45
2022-11-23T18:41:18.677Z,34.70
2022-11-23T18:43:46.052Z,31.17
2022-11-23T18:46:21.293Z,36.58
2022-11-23T18:51:18.600Z,33.00
2022-11-23T18:53:47.639Z,36.30
2022-11-23T18:56:14.868Z,55.47
2022-11-23T18:58:44.730Z,44.83
2022-11-23T19:01:19.232Z,39.63
2022-11-23T19:03:49.605Z,39.42
2022-11-23T19:06:19.531Z,38.70
2022-11-23T19:08:50.879Z,42.03
2022-11-23T19:11:22.381Z,38.95
2022-11-23T19:13:56.748Z,37.47
2022-11-23T19:16:29.979Z,34.30
2022-11-23T19:19:06.112Z,35.05
2022-11-23T19:21:36.059Z,31.90
2022-11-23T19:24:04.242Z,30.73
2022-11-23T19:26:31.746Z,38.05
2022-11-23T19:28:59.666Z,37.45
2022-11-23T19:31:29.800Z,31.50
2022-11-23T19:34:03.148Z,38.65
2022-11-23T19:36:33.193Z,33.75
2022-11-23T19:39:03.065Z,33.75
2022-11-23T19:41:31.238Z,48.53
2022-11-23T19:44:00.528Z,40.88
2022-11-23T19:46:32.247Z,47.92
2022-11-23T19:48:59.801Z,51.35
2022-11-23T19:51:27.986Z,47.10
2022-11-23T19:53:57.659Z,46.88
2022-11-23T19:56:26.246Z,39.38
2022-11-23T19:59:03.788Z,48.92
2022-11-23T20:01:32.559Z,53.35
2022-11-23T20:04:08.606Z,40.13
2022-11-23T20:06:37.196Z,46.03
2022-11-23T20:09:16.925Z,35.35
2022-11-23T20:11:50.394Z,43.50
2022-11-23T20:14:18.037Z,45.47
2022-11-23T20:16:45.186Z,42.33
2022-11-23T20:19:12.461Z,41.22
2022-11-23T20:21:39.432Z,43.60
2022-11-23T20:24:14.164Z,39.85
2022-11-23T20:26:42.942Z,42.58
2022-11-23T20:29:10.934Z,41.55
2022-11-23T20:31:41.043Z,42.03
2022-11-23T20:34:10.669Z,44.25
2022-11-23T20:36:40.245Z,40.35
2022-11-23T20:39:10.582Z,38.45
2022-11-23T20:41:38.775Z,43.22
2022-11-23T20:44:11.356Z,43.42
2022-11-23T20:49:32.652Z,48.53
2022-11-23T20:52:00.059Z,41.03
2022-11-23T20:54:27.102Z,43.75
2022-11-23T20:56:55.599Z,43.70
2022-11-23T20:59:23.847Z,40.75
2022-11-23T21:01:51.569Z,44.03
2022-11-23T21:04:18.582Z,44.75
2022-11-23T21:06:45.563Z,50.15
2022-11-23T21:09:12.644Z,45.08
2022-11-23T21:11:57.907Z,39.03
2022-11-23T21:14:27.903Z,38.55
2022-11-23T21:16:59.204Z,45.35
2022-11-23T21:19:30.220Z,45.30
2022-11-23T21:21:59.175Z,45.88
2022-11-23T21:24:26.269Z,44.17
2022-11-23T21:26:53.486Z,43.85
2022-11-23T21:29:20.957Z,47.25
2022-11-23T21:31:49.424Z,43.80
2022-11-23T21:34:25.865Z,47.92
2022-11-23T21:36:54.842Z,47.38
2022-11-23T21:39:23.436Z,45.70
2022-11-23T21:41:53.477Z,52.92
2022-11-23T21:44:25.015Z,49.88
2022-11-23T21:46:52.321Z,53.95
2022-11-23T21:49:19.328Z,49.28
2022-11-23T21:51:46.597Z,48.50
2022-11-23T21:54:15.691Z,42.75
2022-11-23T21:56:45.888Z,57.38
2022-11-23T21:59:14.514Z,54.03
2022-11-23T22:01:42.507Z,48.45
2022-11-23T22:04:13.175Z,55.50
2022-11-23T22:06:42.143Z,52.13
2022-11-23T22:09:11.400Z,54.20
2022-11-23T22:11:41.670Z,55.65
2022-11-23T22:14:15.337Z,58.58
2022-11-23T22:16:49.793Z,53.78
2022-11-23T22:19:17.912Z,53.72
2022-11-23T22:21:46.226Z,55.92
2022-11-23T22:24:19.021Z,60.03
2022-11-23T22:26:47.816Z,55.50
2022-11-23T22:29:15.162Z,55.28
2022-11-23T22:31:43.379Z,53.22
2022-11-23T22:34:13.534Z,63.55
2022-11-23T22:36:41.237Z,61.70
2022-11-23T22:39:08.980Z,74.50
2022-11-23T22:41:37.693Z,59.65
2022-11-23T22:44:07.922Z,60.85
2022-11-23T22:46:35.974Z,58.00
2022-11-23T22:49:03.468Z,62.08
2022-11-23T22:51:30.677Z,61.35
2022-11-23T22:54:00.294Z,63.72
2022-11-23T22:56:29.717Z,66.40
2022-11-23T22:58:57.097Z,56.58
2022-11-23T23:01:30.687Z,59.00
2022-11-23T23:04:03.562Z,59.95
2022-11-23T23:06:34.808Z,55.63
2022-11-23T23:09:04.808Z,58.53
2022-11-23T23:11:34.153Z,56.72
2022-11-23T23:14:01.277Z,59.15
2022-11-23T23:16:28.856Z,60.22
2022-11-23T23:18:57.640Z,61.83
2022-11-23T23:21:27.644Z,57.38
2022-11-23T23:23:59.031Z,63.45
2022-11-23T23:26:28.532Z,51.72
2022-11-23T23:28:59.164Z,56.40
2022-11-23T23:31:28.014Z,60.13
2022-11-23T23:33:55.357Z,51.40
2022-11-23T23:36:24.461Z,56.28
2022-11-23T23:38:52.038Z,64.68
2022-11-23T23:41:19.358Z,58.85
2022-11-23T23:43:48.228Z,58.17
2022-11-23T23:46:15.841Z,58.22
2022-11-23T23:48:42.907Z,61.78
2022-11-23T23:51:21.007Z,62.03
2022-11-23T23:53:48.474Z,62.95
2022-11-23T23:56:24.737Z,54.10
2022-11-23T23:58:52.529Z,54.00
